sensor_id;sensor_type;location;lat;lon;timestamp;pressure;altitude;pressure_sealevel;temperature;humidity
50859;BME280;36826;47.514;19.056;2023-07-13T00:01:27;99874.81;;;34.71;37.21
50859;BME280;36826;47.514;19.056;2023-07-13T00:03:54;99867.38;;;35.13;36.31
50859;BME280;36826;47.514;19.056;2023-07-13T00:06:21;99864.38;;;34.30;38.50
50859;BME280;36826;47.514;19.056;2023-07-13T00:08:47;99868.53;;;34.13;38.40
50859;BME280;36826;47.514;19.056;2023-07-13T00:11:14;99870.53;;;33.50;39.99
50859;BME280;36826;47.514;19.056;2023-07-13T00:13:42;99848.31;;;31.52;44.43
50859;BME280;36826;47.514;19.056;2023-07-13T00:16:09;99833.81;;;32.51;42.17
50859;BME280;36826;47.514;19.056;2023-07-13T00:18:35;99825.41;;;32.61;41.68
50859;BME280;36826;47.514;19.056;2023-07-13T00:21:01;99827.06;;;32.33;41.97
50859;BME280;36826;47.514;19.056;2023-07-13T00:23:35;99823.34;;;31.58;43.85
50859;BME280;36826;47.514;19.056;2023-07-13T00:26:04;99798.97;;;31.70;44.14
50859;BME280;36826;47.514;19.056;2023-07-13T00:28:30;99794.69;;;32.23;42.06
50859;BME280;36826;47.514;19.056;2023-07-13T00:30:56;99784.59;;;31.63;42.83
50859;BME280;36826;47.514;19.056;2023-07-13T00:33:23;99778.72;;;33.22;40.15
50859;BME280;36826;47.514;19.056;2023-07-13T00:35:49;99768.19;;;34.15;37.62
50859;BME280;36826;47.514;19.056;2023-07-13T00:38:15;99766.50;;;33.23;39.06
50859;BME280;36826;47.514;19.056;2023-07-13T00:40:40;99763.50;;;33.77;37.83
50859;BME280;36826;47.514;19.056;2023-07-13T00:43:17;99756.16;;;34.80;35.34
50859;BME280;36826;47.514;19.056;2023-07-13T00:48:10;99753.63;;;34.37;35.81
50859;BME280;36826;47.514;19.056;2023-07-13T00:50:37;99753.19;;;34.30;35.42
50859;BME280;36826;47.514;19.056;2023-07-13T00:53:04;99749.88;;;35.02;34.23
50859;BME280;36826;47.514;19.056;2023-07-13T00:55:29;99747.13;;;35.53;33.52
50859;BME280;36826;47.514;19.056;2023-07-13T00:57:55;99747.59;;;35.69;33.16
50859;BME280;36826;47.514;19.056;2023-07-13T01:00:22;99730.00;;;35.09;34.09
50859;BME280;36826;47.514;19.056;2023-07-13T01:02:48;99726.28;;;34.72;34.68
50859;BME280;36826;47.514;19.056;2023-07-13T01:05:20;99730.78;;;34.40;35.29
50859;BME280;36826;47.514;19.056;2023-07-13T01:07:49;99725.47;;;34.85;34.43
50859;BME280;36826;47.514;19.056;2023-07-13T01:10:17;99724.66;;;34.99;34.14
50859;BME280;36826;47.514;19.056;2023-07-13T01:12:42;99721.31;;;35.25;33.39
50859;BME280;36826;47.514;19.056;2023-07-13T01:15:40;99735.94;;;35.90;32.53
50859;BME280;36826;47.514;19.056;2023-07-13T01:18:09;99742.84;;;34.02;35.45
50859;BME280;36826;47.514;19.056;2023-07-13T01:20:35;99736.78;;;34.89;34.24
50859;BME280;36826;47.514;19.056;2023-07-13T01:23:08;99734.81;;;35.68;33.13
50859;BME280;36826;47.514;19.056;2023-07-13T01:25:35;99745.13;;;35.68;32.77
50859;BME280;36826;47.514;19.056;2023-07-13T01:28:02;99743.09;;;35.59;33.41
50859;BME280;36826;47.514;19.056;2023-07-13T01:30:28;99731.38;;;35.48;33.69
50859;BME280;36826;47.514;19.056;2023-07-13T01:32:55;99724.78;;;35.44;34.04
50859;BME280;36826;47.514;19.056;2023-07-13T01:35:20;99720.94;;;35.77;33.07
50859;BME280;36826;47.514;19.056;2023-07-13T01:37:46;99730.56;;;35.34;33.67
50859;BME280;36826;47.514;19.056;2023-07-13T01:40:12;99730.13;;;35.04;34.35
50859;BME280;36826;47.514;19.056;2023-07-13T01:42:38;99713.09;;;35.06;34.54
50859;BME280;36826;47.514;19.056;2023-07-13T01:45:04;99709.97;;;35.21;34.44
50859;BME280;36826;47.514;19.056;2023-07-13T01:47:31;99715.31;;;35.91;33.00
50859;BME280;36826;47.514;19.056;2023-07-13T01:49:57;99708.84;;;35.59;33.78
50859;BME280;36826;47.514;19.056;2023-07-13T01:52:23;99702.47;;;35.58;33.74
50859;BME280;36826;47.514;19.056;2023-07-13T01:54:49;99701.63;;;35.58;33.68
50859;BME280;36826;47.514;19.056;2023-07-13T01:57:15;99699.09;;;35.70;33.25
50859;BME280;36826;47.514;19.056;2023-07-13T01:59:40;99701.06;;;35.33;33.89
50859;BME280;36826;47.514;19.056;2023-07-13T02:02:06;99688.69;;;35.39;34.21
50859;BME280;36826;47.514;19.056;2023-07-13T02:04:31;99689.59;;;35.71;33.44
50859;BME280;36826;47.514;19.056;2023-07-13T02:06:57;99679.53;;;35.84;33.22
50859;BME280;36826;47.514;19.056;2023-07-13T02:09:23;99675.06;;;35.52;33.65
50859;BME280;36826;47.514;19.056;2023-07-13T02:11:48;99686.97;;;35.43;33.39
50859;BME280;36826;47.514;19.056;2023-07-13T02:14:15;99689.50;;;35.54;33.59
50859;BME280;36826;47.514;19.056;2023-07-13T02:16:41;99693.41;;;35.75;33.31
50859;BME280;36826;47.514;19.056;2023-07-13T02:19:07;99703.31;;;34.80;34.66
50859;BME280;36826;47.514;19.056;2023-07-13T02:21:33;99694.56;;;34.73;35.21
50859;BME280;36826;47.514;19.056;2023-07-13T02:23:59;99689.53;;;34.75;35.53
50859;BME280;36826;47.514;19.056;2023-07-13T02:26:25;99702.41;;;34.85;35.30
50859;BME280;36826;47.514;19.056;2023-07-13T02:28:51;99703.16;;;34.02;37.22
50859;BME280;36826;47.514;19.056;2023-07-13T02:31:17;99692.72;;;33.93;37.21
50859;BME280;36826;47.514;19.056;2023-07-13T02:33:43;99702.16;;;33.21;38.47
50859;BME280;36826;47.514;19.056;2023-07-13T02:36:09;99700.88;;;33.32;38.32
50859;BME280;36826;47.514;19.056;2023-07-13T02:38:35;99719.41;;;34.08;37.24
50859;BME280;36826;47.514;19.056;2023-07-13T02:41:03;99716.63;;;34.69;36.33
50859;BME280;36826;47.514;19.056;2023-07-13T02:43:29;99705.81;;;34.07;37.43
50859;BME280;36826;47.514;19.056;2023-07-13T02:45:55;99701.81;;;33.03;39.22
50859;BME280;36826;47.514;19.056;2023-07-13T02:48:20;99710.84;;;33.72;38.38
50859;BME280;36826;47.514;19.056;2023-07-13T02:50:47;99719.22;;;33.09;39.95
50859;BME280;36826;47.514;19.056;2023-07-13T02:53:13;99716.66;;;33.89;38.44
50859;BME280;36826;47.514;19.056;2023-07-13T02:55:38;99720.81;;;33.73;38.45
50859;BME280;36826;47.514;19.056;2023-07-13T02:58:06;99720.56;;;34.35;37.48
50859;BME280;36826;47.514;19.056;2023-07-13T03:00:32;99725.25;;;33.74;38.24
50859;BME280;36826;47.514;19.056;2023-07-13T03:02:58;99721.41;;;33.89;38.11
50859;BME280;36826;47.514;19.056;2023-07-13T03:05:24;99725.63;;;34.33;37.18
50859;BME280;36826;47.514;19.056;2023-07-13T03:07:49;99738.63;;;34.38;37.05
50859;BME280;36826;47.514;19.056;2023-07-13T03:10:15;99745.31;;;33.27;39.23
50859;BME280;36826;47.514;19.056;2023-07-13T03:12:42;99747.59;;;34.02;37.49
50859;BME280;36826;47.514;19.056;2023-07-13T03:15:08;99751.38;;;34.39;37.08
50859;BME280;36826;47.514;19.056;2023-07-13T03:17:36;99755.53;;;34.41;37.25
50859;BME280;36826;47.514;19.056;2023-07-13T03:20:01;99752.06;;;34.64;36.40
50859;BME280;36826;47.514;19.056;2023-07-13T03:22:27;99753.00;;;35.38;35.06
50859;BME280;36826;47.514;19.056;2023-07-13T03:24:55;99751.88;;;35.53;35.09
50859;BME280;36826;47.514;19.056;2023-07-13T03:27:22;99742.13;;;35.87;34.37
50859;BME280;36826;47.514;19.056;2023-07-13T03:29:49;99744.03;;;36.23;33.57
50859;BME280;36826;47.514;19.056;2023-07-13T03:32:14;99759.19;;;36.08;33.85
50859;BME280;36826;47.514;19.056;2023-07-13T03:34:39;99750.16;;;36.34;33.56
50859;BME280;36826;47.514;19.056;2023-07-13T03:37:05;99732.75;;;36.28;32.94
50859;BME280;36826;47.514;19.056;2023-07-13T03:39:31;99724.78;;;35.44;34.64
50859;BME280;36826;47.514;19.056;2023-07-13T03:41:56;99730.31;;;36.04;33.83
50859;BME280;36826;47.514;19.056;2023-07-13T03:44:22;99751.63;;;36.31;32.97
50859;BME280;36826;47.514;19.056;2023-07-13T03:46:47;99758.13;;;36.18;33.28
50859;BME280;36826;47.514;19.056;2023-07-13T03:49:13;99756.84;;;36.55;32.84
50859;BME280;36826;47.514;19.056;2023-07-13T03:51:39;99752.63;;;37.16;31.55
50859;BME280;36826;47.514;19.056;2023-07-13T03:54:05;99752.19;;;37.75;31.16
50859;BME280;36826;47.514;19.056;2023-07-13T03:56:32;99759.75;;;38.01;30.65
50859;BME280;36826;47.514;19.056;2023-07-13T03:58:58;99740.16;;;38.10;29.79
50859;BME280;36826;47.514;19.056;2023-07-13T04:01:24;99745.72;;;38.28;29.77
50859;BME280;36826;47.514;19.056;2023-07-13T04:03:51;99748.50;;;38.28;29.70
50859;BME280;36826;47.514;19.056;2023-07-13T04:06:26;99750.38;;;38.06;30.05
50859;BME280;36826;47.514;19.056;2023-07-13T04:08:59;99764.66;;;38.13;29.91
50859;BME280;36826;47.514;19.056;2023-07-13T04:11:28;99778.16;;;38.11;29.79
50859;BME280;36826;47.514;19.056;2023-07-13T04:13:53;99800.31;;;38.16;29.54
50859;BME280;36826;47.514;19.056;2023-07-13T04:16:21;99817.94;;;38.08;29.72
50859;BME280;36826;47.514;19.056;2023-07-13T04:18:48;99830.13;;;37.95;29.81
50859;BME280;36826;47.514;19.056;2023-07-13T04:21:14;99831.00;;;37.37;30.58
50859;BME280;36826;47.514;19.056;2023-07-13T04:23:41;99837.47;;;37.55;30.06
50859;BME280;36826;47.514;19.056;2023-07-13T04:26:07;99827.16;;;37.07;30.60
50859;BME280;36826;47.514;19.056;2023-07-13T04:28:33;99817.16;;;37.14;30.67
50859;BME280;36826;47.514;19.056;2023-07-13T04:30:59;99818.22;;;35.73;32.69
50859;BME280;36826;47.514;19.056;2023-07-13T04:33:26;99827.56;;;36.05;32.60
50859;BME280;36826;47.514;19.056;2023-07-13T04:35:53;99827.84;;;36.81;30.93
50859;BME280;36826;47.514;19.056;2023-07-13T04:38:25;99837.69;;;36.78;30.83
50859;BME280;36826;47.514;19.056;2023-07-13T04:40:54;99844.75;;;35.71;32.67
50859;BME280;36826;47.514;19.056;2023-07-13T04:43:20;99850.13;;;35.67;32.33
50859;BME280;36826;47.514;19.056;2023-07-13T04:45:45;99851.88;;;36.59;31.15
50859;BME280;36826;47.514;19.056;2023-07-13T04:48:11;99857.81;;;36.66;31.30
50859;BME280;36826;47.514;19.056;2023-07-13T04:50:37;99866.81;;;36.18;31.78
50859;BME280;36826;47.514;19.056;2023-07-13T04:53:03;99873.84;;;36.38;31.71
50859;BME280;36826;47.514;19.056;2023-07-13T04:55:29;99873.28;;;36.73;31.15
50859;BME280;36826;47.514;19.056;2023-07-13T04:57:57;99891.56;;;36.56;31.93
50859;BME280;36826;47.514;19.056;2023-07-13T05:00:26;99907.94;;;36.80;31.35
50859;BME280;36826;47.514;19.056;2023-07-13T05:02:54;99922.69;;;36.13;33.46
50859;BME280;36826;47.514;19.056;2023-07-13T05:05:20;99939.84;;;35.22;35.30
50859;BME280;36826;47.514;19.056;2023-07-13T05:07:46;99959.44;;;35.87;34.55
50859;BME280;36826;47.514;19.056;2023-07-13T05:10:11;99996.31;;;35.98;34.87
50859;BME280;36826;47.514;19.056;2023-07-13T05:12:38;100027.00;;;35.37;35.42
50859;BME280;36826;47.514;19.056;2023-07-13T05:15:05;100043.19;;;34.82;36.86
50859;BME280;36826;47.514;19.056;2023-07-13T05:17:31;100052.47;;;33.91;41.20
50859;BME280;36826;47.514;19.056;2023-07-13T05:19:56;100056.50;;;38.79;36.49
50859;BME280;36826;47.514;19.056;2023-07-13T05:22:22;100055.34;;;38.54;33.52
50859;BME280;36826;47.514;19.056;2023-07-13T05:24:48;100023.75;;;38.79;33.15
50859;BME280;36826;47.514;19.056;2023-07-13T05:27:13;100038.72;;;38.66;33.54
50859;BME280;36826;47.514;19.056;2023-07-13T05:29:39;100035.06;;;37.81;33.17
50859;BME280;36826;47.514;19.056;2023-07-13T05:32:04;100038.38;;;37.83;34.01
50859;BME280;36826;47.514;19.056;2023-07-13T05:34:30;100043.22;;;37.06;34.62
50859;BME280;36826;47.514;19.056;2023-07-13T05:36:57;100039.09;;;36.44;34.57
50859;BME280;36826;47.514;19.056;2023-07-13T05:39:23;100039.97;;;36.02;35.34
50859;BME280;36826;47.514;19.056;2023-07-13T05:41:48;100011.06;;;35.84;35.75
50859;BME280;36826;47.514;19.056;2023-07-13T05:44:15;100007.38;;;34.42;38.12
50859;BME280;36826;47.514;19.056;2023-07-13T05:46:41;100020.72;;;34.60;37.51
50859;BME280;36826;47.514;19.056;2023-07-13T05:49:07;100008.41;;;35.32;36.61
50859;BME280;36826;47.514;19.056;2023-07-13T05:51:32;100001.31;;;34.93;36.89
50859;BME280;36826;47.514;19.056;2023-07-13T05:53:58;100008.06;;;35.20;36.71
50859;BME280;36826;47.514;19.056;2023-07-13T05:56:23;100005.00;;;34.31;37.83
50859;BME280;36826;47.514;19.056;2023-07-13T05:58:50;99991.25;;;34.20;37.64
50859;BME280;36826;47.514;19.056;2023-07-13T06:01:16;99994.28;;;35.14;35.88
50859;BME280;36826;47.514;19.056;2023-07-13T06:03:41;99989.59;;;34.19;36.80
50859;BME280;36826;47.514;19.056;2023-07-13T06:06:09;99985.97;;;35.98;34.85
50859;BME280;36826;47.514;19.056;2023-07-13T06:08:35;99970.22;;;35.52;35.42
50859;BME280;36826;47.514;19.056;2023-07-13T06:11:12;99931.63;;;35.59;34.59
50859;BME280;36826;47.514;19.056;2023-07-13T06:13:39;99897.84;;;34.57;37.19
50859;BME280;36826;47.514;19.056;2023-07-13T06:16:05;99822.34;;;34.17;37.74
50859;BME280;36826;47.514;19.056;2023-07-13T06:18:34;99617.41;;;29.88;46.75
50859;BME280;36826;47.514;19.056;2023-07-13T06:21:05;99566.88;;;30.08;46.49
50859;BME280;36826;47.514;19.056;2023-07-13T06:23:31;99704.59;;;32.31;41.72
50859;BME280;36826;47.514;19.056;2023-07-13T06:25:56;99726.84;;;32.20;41.74
50859;BME280;36826;47.514;19.056;2023-07-13T06:28:22;99654.06;;;30.29;46.17
50859;BME280;36826;47.514;19.056;2023-07-13T06:30:48;99633.38;;;29.13;48.64
50859;BME280;36826;47.514;19.056;2023-07-13T06:33:13;99623.72;;;31.99;42.24
50859;BME280;36826;47.514;19.056;2023-07-13T06:35:39;99616.34;;;30.75;44.16
50859;BME280;36826;47.514;19.056;2023-07-13T06:38:04;99679.09;;;32.58;40.46
50859;BME280;36826;47.514;19.056;2023-07-13T06:40:30;99678.16;;;31.85;41.94
50859;BME280;36826;47.514;19.056;2023-07-13T06:42:56;99668.47;;;33.09;38.87
50859;BME280;36826;47.514;19.056;2023-07-13T06:45:22;99666.44;;;31.18;41.84
50859;BME280;36826;47.514;19.056;2023-07-13T06:47:48;99692.38;;;32.02;42.06
50859;BME280;36826;47.514;19.056;2023-07-13T06:50:14;99679.75;;;31.06;43.58
50859;BME280;36826;47.514;19.056;2023-07-13T06:52:40;99664.91;;;31.42;41.51
50859;BME280;36826;47.514;19.056;2023-07-13T06:55:06;99666.13;;;33.16;39.46
50859;BME280;36826;47.514;19.056;2023-07-13T06:57:31;99667.19;;;33.58;38.12
50859;BME280;36826;47.514;19.056;2023-07-13T06:59:57;99669.72;;;35.87;35.34
50859;BME280;36826;47.514;19.056;2023-07-13T07:02:22;99686.94;;;37.71;32.06
50859;BME280;36826;47.514;19.056;2023-07-13T07:04:48;99679.06;;;37.03;32.29
50859;BME280;36826;47.514;19.056;2023-07-13T07:07:13;99670.53;;;39.58;30.65
50859;BME280;36826;47.514;19.056;2023-07-13T07:09:39;99680.28;;;42.36;26.69
50859;BME280;36826;47.514;19.056;2023-07-13T07:12:05;99694.47;;;37.00;31.54
50859;BME280;36826;47.514;19.056;2023-07-13T07:14:30;99733.53;;;41.56;27.53
50859;BME280;36826;47.514;19.056;2023-07-13T07:16:56;99809.41;;;43.57;24.99
50859;BME280;36826;47.514;19.056;2023-07-13T07:19:23;99836.28;;;43.71;24.22
50859;BME280;36826;47.514;19.056;2023-07-13T07:21:49;99817.72;;;44.28;24.57
50859;BME280;36826;47.514;19.056;2023-07-13T07:24:15;99824.84;;;44.22;23.83
50859;BME280;36826;47.514;19.056;2023-07-13T07:26:41;99833.06;;;44.08;23.29
50859;BME280;36826;47.514;19.056;2023-07-13T07:29:06;99845.56;;;44.96;22.99
50859;BME280;36826;47.514;19.056;2023-07-13T07:31:32;99851.38;;;42.46;24.75
50859;BME280;36826;47.514;19.056;2023-07-13T07:33:57;99855.41;;;43.26;24.01
50859;BME280;36826;47.514;19.056;2023-07-13T07:36:23;99883.22;;;42.22;25.25
50859;BME280;36826;47.514;19.056;2023-07-13T07:38:48;99882.88;;;42.36;24.93
50859;BME280;36826;47.514;19.056;2023-07-13T07:41:14;99883.75;;;42.85;23.82
50859;BME280;36826;47.514;19.056;2023-07-13T07:43:39;99894.56;;;43.31;24.25
50859;BME280;36826;47.514;19.056;2023-07-13T07:46:05;99888.22;;;44.68;22.94
50859;BME280;36826;47.514;19.056;2023-07-13T07:48:31;99876.03;;;44.83;21.71
50859;BME280;36826;47.514;19.056;2023-07-13T07:50:57;99892.16;;;45.60;21.58
50859;BME280;36826;47.514;19.056;2023-07-13T07:53:23;99877.63;;;43.47;22.77
50859;BME280;36826;47.514;19.056;2023-07-13T07:55:48;99886.47;;;42.65;23.86
50859;BME280;36826;47.514;19.056;2023-07-13T07:58:15;99876.38;;;44.39;21.71
50859;BME280;36826;47.514;19.056;2023-07-13T08:00:42;99892.22;;;45.94;20.42
50859;BME280;36826;47.514;19.056;2023-07-13T08:03:09;99896.75;;;47.71;18.91
50859;BME280;36826;47.514;19.056;2023-07-13T08:05:36;99896.03;;;47.26;19.39
50859;BME280;36826;47.514;19.056;2023-07-13T08:08:02;99889.81;;;49.01;17.51
50859;BME280;36826;47.514;19.056;2023-07-13T08:10:27;99878.72;;;48.23;18.11
50859;BME280;36826;47.514;19.056;2023-07-13T08:12:56;99885.19;;;48.16;18.17
50859;BME280;36826;47.514;19.056;2023-07-13T08:15:23;99878.41;;;48.53;18.52
50859;BME280;36826;47.514;19.056;2023-07-13T08:17:49;99886.69;;;50.20;16.82
50859;BME280;36826;47.514;19.056;2023-07-13T08:20:17;99887.63;;;48.18;18.04
50859;BME280;36826;47.514;19.056;2023-07-13T08:22:43;99900.22;;;48.20;17.80
50859;BME280;36826;47.514;19.056;2023-07-13T08:25:12;99895.66;;;50.08;16.51
50859;BME280;36826;47.514;19.056;2023-07-13T08:27:39;99902.03;;;51.42;15.30
50859;BME280;36826;47.514;19.056;2023-07-13T08:30:49;99893.56;;;53.58;14.27
50859;BME280;36826;47.514;19.056;2023-07-13T08:32:56;99887.13;;;53.06;14.19
50859;BME280;36826;47.514;19.056;2023-07-13T08:35:22;99883.97;;;51.91;14.61
50859;BME280;36826;47.514;19.056;2023-07-13T08:37:47;99869.50;;;49.02;16.70
50859;BME280;36826;47.514;19.056;2023-07-13T08:40:13;99876.00;;;49.13;17.16
50859;BME280;36826;47.514;19.056;2023-07-13T08:42:44;99876.81;;;48.71;17.31
50859;BME280;36826;47.514;19.056;2023-07-13T08:48:01;99888.91;;;51.10;15.74
50859;BME280;36826;47.514;19.056;2023-07-13T08:50:33;99889.38;;;51.44;14.90
50859;BME280;36826;47.514;19.056;2023-07-13T08:53:05;99886.63;;;51.36;15.19
50859;BME280;36826;47.514;19.056;2023-07-13T08:55:34;99881.94;;;50.62;15.54
50859;BME280;36826;47.514;19.056;2023-07-13T08:58:11;99877.50;;;47.39;18.17
50859;BME280;36826;47.514;19.056;2023-07-13T09:00:48;99884.00;;;47.40;18.03
50859;BME280;36826;47.514;19.056;2023-07-13T09:03:21;99873.16;;;47.00;18.52
50859;BME280;36826;47.514;19.056;2023-07-13T09:05:54;99880.41;;;48.42;17.60
50859;BME280;36826;47.514;19.056;2023-07-13T09:11:36;99882.25;;;50.15;16.12
50859;BME280;36826;47.514;19.056;2023-07-13T09:17:27;99881.63;;;49.64;16.07
50859;BME280;36826;47.514;19.056;2023-07-13T09:20:27;99892.56;;;51.88;14.59
50859;BME280;36826;47.514;19.056;2023-07-13T09:22:59;99880.84;;;54.00;13.46
50859;BME280;36826;47.514;19.056;2023-07-13T09:25:33;99891.69;;;54.95;12.33
50859;BME280;36826;47.514;19.056;2023-07-13T09:28:08;99888.44;;;55.26;11.95
50859;BME280;36826;47.514;19.056;2023-07-13T09:30:46;99884.38;;;53.23;13.32
50859;BME280;36826;47.514;19.056;2023-07-13T09:33:19;99889.38;;;52.71;13.67
50859;BME280;36826;47.514;19.056;2023-07-13T09:35:50;99895.59;;;52.90;13.36
50859;BME280;36826;47.514;19.056;2023-07-13T09:38:19;99898.16;;;51.98;14.27
50859;BME280;36826;47.514;19.056;2023-07-13T09:44:11;99902.75;;;48.51;16.91
50859;BME280;36826;47.514;19.056;2023-07-13T09:46:43;99916.06;;;49.95;16.07
50859;BME280;36826;47.514;19.056;2023-07-13T09:49:10;99924.19;;;50.75;15.46
50859;BME280;36826;47.514;19.056;2023-07-13T09:51:37;99928.59;;;51.36;14.69
50859;BME280;36826;47.514;19.056;2023-07-13T09:54:03;99925.25;;;50.99;14.99
50859;BME280;36826;47.514;19.056;2023-07-13T09:56:29;99920.69;;;51.85;14.12
50859;BME280;36826;47.514;19.056;2023-07-13T09:58:56;99902.47;;;51.41;14.78
50859;BME280;36826;47.514;19.056;2023-07-13T10:01:52;99911.25;;;50.67;15.24
50859;BME280;36826;47.514;19.056;2023-07-13T10:04:19;99913.78;;;50.50;15.38
50859;BME280;36826;47.514;19.056;2023-07-13T10:06:46;99910.78;;;49.97;15.59
50859;BME280;36826;47.514;19.056;2023-07-13T10:09:17;99909.84;;;50.26;15.34
50859;BME280;36826;47.514;19.056;2023-07-13T10:11:44;99915.41;;;49.04;16.62
50859;BME280;36826;47.514;19.056;2023-07-13T10:14:18;99920.66;;;48.77;16.50
50859;BME280;36826;47.514;19.056;2023-07-13T10:16:49;99916.63;;;49.43;16.05
50859;BME280;36826;47.514;19.056;2023-07-13T10:19:26;99913.38;;;48.94;16.74
50859;BME280;36826;47.514;19.056;2023-07-13T10:22:14;99918.56;;;49.86;15.82
50859;BME280;36826;47.514;19.056;2023-07-13T10:24:44;99906.00;;;49.62;16.26
50859;BME280;36826;47.514;19.056;2023-07-13T10:27:23;99914.38;;;50.09;15.37
50859;BME280;36826;47.514;19.056;2023-07-13T10:29:59;99925.84;;;48.35;16.88
50859;BME280;36826;47.514;19.056;2023-07-13T10:32:27;99934.38;;;48.49;16.65
50859;BME280;36826;47.514;19.056;2023-07-13T10:34:53;99935.03;;;46.91;17.95
50859;BME280;36826;47.514;19.056;2023-07-13T10:37:26;99935.78;;;45.86;18.93
50859;BME280;36826;47.514;19.056;2023-07-13T10:39:54;99933.88;;;44.50;20.10
50859;BME280;36826;47.514;19.056;2023-07-13T10:42:39;99931.91;;;45.71;18.96
50859;BME280;36826;47.514;19.056;2023-07-13T10:45:27;99927.38;;;45.39;19.64
50859;BME280;36826;47.514;19.056;2023-07-13T10:47:56;99929.50;;;44.53;20.10
50859;BME280;36826;47.514;19.056;2023-07-13T10:50:25;99934.31;;;44.33;20.20
50859;BME280;36826;47.514;19.056;2023-07-13T10:52:56;99931.47;;;43.93;20.47
50859;BME280;36826;47.514;19.056;2023-07-13T11:04:29;99917.47;;;44.79;19.86
50859;BME280;36826;47.514;19.056;2023-07-13T11:07:16;99910.47;;;44.93;19.63
50859;BME280;36826;47.514;19.056;2023-07-13T11:09:50;99910.22;;;45.01;19.60
50859;BME280;36826;47.514;19.056;2023-07-13T11:20:33;99925.44;;;43.59;20.64
50859;BME280;36826;47.514;19.056;2023-07-13T11:25:38;99910.34;;;43.67;19.98
50859;BME280;36826;47.514;19.056;2023-07-13T11:33:03;99896.91;;;45.02;19.01
50859;BME280;36826;47.514;19.056;2023-07-13T11:35:37;99908.94;;;44.75;19.34
50859;BME280;36826;47.514;19.056;2023-07-13T11:38:14;99895.72;;;44.17;19.90
50859;BME280;36826;47.514;19.056;2023-07-13T11:40:43;99900.66;;;44.63;19.85
50859;BME280;36826;47.514;19.056;2023-07-13T11:43:13;99906.25;;;44.59;19.23
50859;BME280;36826;47.514;19.056;2023-07-13T11:45:39;99901.09;;;43.87;20.04
50859;BME280;36826;47.514;19.056;2023-07-13T11:48:05;99911.16;;;43.68;20.77
50859;BME280;36826;47.514;19.056;2023-07-13T11:50:31;99896.59;;;43.30;21.06
50859;BME280;36826;47.514;19.056;2023-07-13T11:52:58;99905.84;;;42.83;21.72
50859;BME280;36826;47.514;19.056;2023-07-13T11:55:24;99911.91;;;43.49;20.90
50859;BME280;36826;47.514;19.056;2023-07-13T11:58:09;99917.97;;;43.83;20.43
50859;BME280;36826;47.514;19.056;2023-07-13T12:00:37;99915.00;;;42.35;21.46
50859;BME280;36826;47.514;19.056;2023-07-13T12:03:03;99912.47;;;43.90;20.31
50859;BME280;36826;47.514;19.056;2023-07-13T12:05:30;99911.41;;;43.11;20.65
50859;BME280;36826;47.514;19.056;2023-07-13T12:07:58;99911.78;;;42.08;22.05
50859;BME280;36826;47.514;19.056;2023-07-13T12:10:29;99901.06;;;43.31;20.54
50859;BME280;36826;47.514;19.056;2023-07-13T12:13:00;99894.50;;;43.79;19.83
50859;BME280;36826;47.514;19.056;2023-07-13T12:15:39;99890.19;;;43.85;19.84
50859;BME280;36826;47.514;19.056;2023-07-13T12:18:13;99882.56;;;44.25;19.69
50859;BME280;36826;47.514;19.056;2023-07-13T12:20:39;99892.47;;;43.28;20.55
50859;BME280;36826;47.514;19.056;2023-07-13T12:23:10;99897.97;;;42.60;20.83
50859;BME280;36826;47.514;19.056;2023-07-13T12:25:45;99892.13;;;43.29;20.38
50859;BME280;36826;47.514;19.056;2023-07-13T12:31:40;99889.16;;;43.58;20.35
50859;BME280;36826;47.514;19.056;2023-07-13T12:34:12;99888.59;;;44.04;19.68
50859;BME280;36826;47.514;19.056;2023-07-13T12:36:45;99883.34;;;43.66;20.38
50859;BME280;36826;47.514;19.056;2023-07-13T12:39:17;99881.22;;;44.38;19.67
50859;BME280;36826;47.514;19.056;2023-07-13T12:41:44;99873.84;;;44.53;19.55
50859;BME280;36826;47.514;19.056;2023-07-13T12:44:28;99874.78;;;43.27;20.45
50859;BME280;36826;47.514;19.056;2023-07-13T12:46:58;99872.56;;;44.08;19.62
50859;BME280;36826;47.514;19.056;2023-07-13T12:49:27;99884.31;;;44.76;19.17
50859;BME280;36826;47.514;19.056;2023-07-13T12:52:02;99887.88;;;44.30;19.01
50859;BME280;36826;47.514;19.056;2023-07-13T12:54:29;99868.47;;;44.05;19.62
50859;BME280;36826;47.514;19.056;2023-07-13T12:56:57;99866.03;;;44.89;18.49
50859;BME280;36826;47.514;19.056;2023-07-13T12:59:25;99865.63;;;44.68;19.03
50859;BME280;36826;47.514;19.056;2023-07-13T13:01:53;99871.91;;;44.38;19.52
50859;BME280;36826;47.514;19.056;2023-07-13T13:04:20;99870.94;;;44.07;19.46
50859;BME280;36826;47.514;19.056;2023-07-13T13:06:47;99880.09;;;43.84;20.19
50859;BME280;36826;47.514;19.056;2023-07-13T13:09:14;99882.75;;;43.77;19.48
50859;BME280;36826;47.514;19.056;2023-07-13T13:11:41;99874.81;;;43.63;19.43
50859;BME280;36826;47.514;19.056;2023-07-13T13:14:07;99875.66;;;44.22;19.17
50859;BME280;36826;47.514;19.056;2023-07-13T13:16:35;99865.88;;;44.16;19.55
50859;BME280;36826;47.514;19.056;2023-07-13T13:19:13;99860.59;;;43.75;19.64
50859;BME280;36826;47.514;19.056;2023-07-13T13:21:39;99854.16;;;43.59;19.69
50859;BME280;36826;47.514;19.056;2023-07-13T13:24:16;99852.50;;;44.79;18.97
50859;BME280;36826;47.514;19.056;2023-07-13T13:26:43;99849.50;;;44.68;19.19
50859;BME280;36826;47.514;19.056;2023-07-13T13:29:17;99853.28;;;45.23;18.24
50859;BME280;36826;47.514;19.056;2023-07-13T13:31:43;99849.19;;;44.50;19.17
50859;BME280;36826;47.514;19.056;2023-07-13T13:34:13;99864.88;;;45.71;18.20
50859;BME280;36826;47.514;19.056;2023-07-13T13:36:42;99854.34;;;43.50;19.69
50859;BME280;36826;47.514;19.056;2023-07-13T13:39:35;99851.97;;;44.70;18.70